Newhall, West Virginia
Current Conditions -  °F | °C
As of 2:15 AM on Wednesday 22 Oct 2014 (Local Time) from KJFZ Reporting Station
Drizzle Drizzle  
Wind Chill: 39°   Ceiling: 900
Heat Index: 44°   Visibility: 10mi
Dew Point: 42°   Wind: 8mph
Humidity: 93%   Direction: 330°NNW
Pressure: 30.06"   Gusts: NA
Location:  37.26°N, 81.62°W
Report Text: KJFZ 220615Z AUTO 33007KT 10SM -DZ OVC009 07/06 A3006 RMK AO2 T00660055
Loading
Personal Weather Stations






























Interactive Weather Map
Tropical Storm Tracking
New forecast layout! Learn more

10-Day Weather Forecast

Advertisements
Track Severe Weather on mobile